Time;durP1;ratioP1;P1;durP2;ratioP2;P2;SDS_P1;SDS_P2;PMS_P1;PMS_P2;Temp;Humidity;BMP_temperature;BMP_pressure;BME280_temperature;BME280_humidity;BME280_pressure;Samples;Min_cycle;Max_cycle;Signal;HPM_P1;HPM_P2
2021/10/29 00:01:22;;;;;;;4.90;1.30;;;;;;;;;;4955733;28;20062;-60
2021/10/29 00:03:48;;;;;;;5.55;1.33;;;;;;;;;;4955867;28;20064;-59
2021/10/29 00:06:14;;;;;;;1.63;0.55;;;;;;;;;;4956997;28;20109;-61
2021/10/29 00:08:40;;;;;;;6.97;1.00;;;;;;;;;;4955714;28;20998;-60
2021/10/29 00:11:05;;;;;;;3.17;0.80;;;;;;;;;;4956841;28;20051;-60
2021/10/29 00:13:31;;;;;;;6.93;0.95;;;;;;;;;;4952800;28;20057;-59
2021/10/29 00:15:57;;;;;;;2.20;0.60;;;;;;;;;;4940046;28;20050;-61
2021/10/29 00:18:24;;;;;;;2.85;1.00;;;;;;;;;;4938452;28;20099;-59
2021/10/29 00:20:50;;;;;;;2.85;1.00;;;;;;;;;;4937446;28;20039;-60
2021/10/29 00:23:16;;;;;;;2.80;0.88;;;;;;;;;;4939143;28;20043;-59
2021/10/29 00:25:42;;;;;;;4.38;0.98;;;;;;;;;;4933038;28;20135;-60
2021/10/29 00:28:08;;;;;;;3.88;1.15;;;;;;;;;;4935332;28;20067;-59
2021/10/29 00:30:33;;;;;;;5.85;1.88;;;;;;;;;;4936992;28;20428;-57
2021/10/29 00:32:59;;;;;;;4.97;1.83;;;;;;;;;;4939596;28;20078;-59
2021/10/29 00:35:25;;;;;;;6.95;1.60;;;;;;;;;;4938107;28;20034;-60
2021/10/29 00:37:51;;;;;;;5.35;1.60;;;;;;;;;;4933039;28;20043;-59
2021/10/29 00:40:17;;;;;;;6.63;1.80;;;;;;;;;;4938074;28;20125;-58
2021/10/29 00:42:43;;;;;;;11.27;1.90;;;;;;;;;;4937140;28;20046;-62
2021/10/29 00:45:10;;;;;;;5.90;1.70;;;;;;;;;;4938464;28;20162;-60
2021/10/29 00:47:36;;;;;;;4.78;1.23;;;;;;;;;;4937279;28;20121;-61
2021/10/29 00:50:03;;;;;;;4.28;1.40;;;;;;;;;;4939016;28;20157;-60
2021/10/29 00:52:28;;;;;;;3.95;1.33;;;;;;;;;;4927455;28;20052;-60
2021/10/29 00:54:54;;;;;;;3.50;0.98;;;;;;;;;;4936743;28;20049;-62
2021/10/29 00:57:21;;;;;;;5.70;1.13;;;;;;;;;;4938373;28;20042;-61
2021/10/29 00:59:48;;;;;;;3.20;1.08;;;;;;;;;;4940210;28;20078;-61
2021/10/29 01:02:14;;;;;;;4.95;1.40;;;;;;;;;;4940152;28;20064;-60
2021/10/29 01:04:40;;;;;;;3.25;1.17;;;;;;;;;;4937673;28;20051;-59
2021/10/29 01:07:06;;;;;;;2.38;0.88;;;;;;;;;;4938664;28;20481;-59
2021/10/29 01:09:32;;;;;;;4.70;1.08;;;;;;;;;;4936766;28;20044;-59
2021/10/29 01:11:59;;;;;;;7.97;0.90;;;;;;;;;;4936702;28;20055;-59
2021/10/29 01:14:25;;;;;;;7.05;0.80;;;;;;;;;;4935657;28;20074;-60
2021/10/29 01:16:50;;;;;;;5.00;1.10;;;;;;;;;;4936693;28;20169;-60
2021/10/29 01:19:16;;;;;;;5.40;1.10;;;;;;;;;;4939078;28;20061;-60
2021/10/29 01:21:42;;;;;;;2.83;0.93;;;;;;;;;;4937732;28;20087;-60
2021/10/29 01:24:08;;;;;;;4.18;1.08;;;;;;;;;;4938206;28;20479;-59
2021/10/29 01:26:34;;;;;;;6.88;1.27;;;;;;;;;;4939475;28;20676;-58
2021/10/29 01:29:00;;;;;;;2.92;0.95;;;;;;;;;;4938288;28;20054;-57
2021/10/29 01:31:26;;;;;;;5.93;0.98;;;;;;;;;;4924840;28;20223;-59
2021/10/29 01:33:52;;;;;;;3.28;1.23;;;;;;;;;;4932730;28;20198;-60
2021/10/29 01:36:19;;;;;;;4.30;1.23;;;;;;;;;;4940117;28;20574;-59
2021/10/29 01:38:45;;;;;;;3.45;1.20;;;;;;;;;;4939767;28;20043;-60
2021/10/29 01:41:11;;;;;;;3.70;0.98;;;;;;;;;;4939230;28;20122;-60
2021/10/29 01:43:40;;;;;;;7.95;1.30;;;;;;;;;;4938227;28;20354;-60
2021/10/29 01:46:06;;;;;;;4.15;1.10;;;;;;;;;;4941365;28;20045;-59
2021/10/29 01:48:32;;;;;;;5.13;1.00;;;;;;;;;;4939043;28;20048;-57
2021/10/29 01:50:58;;;;;;;4.40;1.38;;;;;;;;;;4940329;28;20052;-59
2021/10/29 01:53:24;;;;;;;5.07;1.00;;;;;;;;;;4933263;28;20119;-60
2021/10/29 01:55:50;;;;;;;3.92;1.25;;;;;;;;;;4944346;28;20091;-58
2021/10/29 01:58:16;;;;;;;5.63;1.13;;;;;;;;;;4942814;28;20350;-60
2021/10/29 02:00:42;;;;;;;3.63;1.10;;;;;;;;;;4941769;28;20042;-59
2021/10/29 02:03:08;;;;;;;7.13;1.15;;;;;;;;;;4941061;28;20122;-60
2021/10/29 02:05:35;;;;;;;6.45;1.45;;;;;;;;;;4938161;28;20531;-60
2021/10/29 02:08:01;;;;;;;6.22;1.40;;;;;;;;;;4940469;28;21022;-59
2021/10/29 02:10:26;;;;;;;8.07;1.30;;;;;;;;;;4937739;28;20477;-59
2021/10/29 02:12:52;;;;;;;4.90;1.10;;;;;;;;;;4938107;28;20067;-63
2021/10/29 02:15:18;;;;;;;3.00;1.10;;;;;;;;;;4937345;28;20059;-60
2021/10/29 02:17:44;;;;;;;5.18;1.08;;;;;;;;;;4935964;29;20576;-60
2021/10/29 02:20:10;;;;;;;7.43;1.17;;;;;;;;;;4936532;29;20059;-61
2021/10/29 02:22:36;;;;;;;4.10;1.02;;;;;;;;;;4934926;29;20044;-61
2021/10/29 02:25:02;;;;;;;3.53;0.90;;;;;;;;;;4936741;29;20486;-60
2021/10/29 02:27:28;;;;;;;5.03;1.05;;;;;;;;;;4933756;29;20039;-60
2021/10/29 02:29:54;;;;;;;4.20;1.00;;;;;;;;;;4932766;29;20133;-59
2021/10/29 02:32:20;;;;;;;7.38;1.27;;;;;;;;;;4932667;29;20166;-59
2021/10/29 02:34:46;;;;;;;8.75;0.95;;;;;;;;;;4932241;29;20040;-59
2021/10/29 02:37:12;;;;;;;4.03;1.00;;;;;;;;;;4933059;29;20038;-59
2021/10/29 02:39:37;;;;;;;6.78;1.00;;;;;;;;;;4931847;29;20067;-60
2021/10/29 02:42:04;;;;;;;4.15;1.10;;;;;;;;;;4934063;29;20083;-59
2021/10/29 02:44:31;;;;;;;5.70;1.65;;;;;;;;;;4932098;29;20106;-60
2021/10/29 02:46:56;;;;;;;11.52;1.60;;;;;;;;;;4933373;29;20177;-60
2021/10/29 02:49:22;;;;;;;5.57;1.50;;;;;;;;;;4933061;29;20519;-58
2021/10/29 02:51:48;;;;;;;7.82;1.38;;;;;;;;;;4932341;28;20138;-62
2021/10/29 02:54:14;;;;;;;6.95;1.75;;;;;;;;;;4933029;29;20050;-59
2021/10/29 02:56:40;;;;;;;5.45;1.58;;;;;;;;;;4933255;29;20045;-60
2021/10/29 02:59:06;;;;;;;10.10;1.65;;;;;;;;;;4932699;28;20050;-58
2021/10/29 03:01:32;;;;;;;7.65;1.90;;;;;;;;;;4936710;29;20035;-57
2021/10/29 03:03:57;;;;;;;8.20;1.30;;;;;;;;;;4937079;29;20544;-57
2021/10/29 03:06:23;;;;;;;4.60;1.38;;;;;;;;;;4934101;29;20040;-57
2021/10/29 03:08:49;;;;;;;6.38;1.75;;;;;;;;;;4934669;29;20071;-58
2021/10/29 03:11:15;;;;;;;12.48;2.08;;;;;;;;;;4935592;29;20053;-60
2021/10/29 03:13:41;;;;;;;8.65;1.75;;;;;;;;;;4930153;28;20050;-58
2021/10/29 03:16:06;;;;;;;3.97;1.35;;;;;;;;;;4933245;28;20048;-57
2021/10/29 03:18:32;;;;;;;12.50;1.85;;;;;;;;;;4931190;28;20058;-58
2021/10/29 03:20:58;;;;;;;6.80;1.58;;;;;;;;;;4935487;29;20110;-58
2021/10/29 03:23:24;;;;;;;6.60;1.80;;;;;;;;;;4930556;29;20046;-59
2021/10/29 03:25:50;;;;;;;3.88;1.45;;;;;;;;;;4933312;28;20051;-59
2021/10/29 03:28:16;;;;;;;4.15;1.58;;;;;;;;;;4934065;29;20122;-59
2021/10/29 03:30:42;;;;;;;15.13;2.28;;;;;;;;;;4931444;28;20061;-58
2021/10/29 03:33:08;;;;;;;9.43;2.15;;;;;;;;;;4931815;28;20479;-58
2021/10/29 03:35:33;;;;;;;6.32;1.73;;;;;;;;;;4931427;28;20043;-59
2021/10/29 03:40:37;;;;;;;7.38;1.60;;;;;;;;;;4933566;28;20054;-59
2021/10/29 03:43:14;;;;;;;6.15;1.67;;;;;;;;;;4933158;29;20051;-63
2021/10/29 03:56:29;;;;;;;13.10;2.22;;;;;;;;;;4934505;29;20480;-58
2021/10/29 03:58:55;;;;;;;8.18;1.85;;;;;;;;;;4935145;28;20043;-57
2021/10/29 04:01:21;;;;;;;5.53;1.90;;;;;;;;;;4934853;29;20203;-57
2021/10/29 04:03:48;;;;;;;11.10;2.25;;;;;;;;;;4937007;28;20083;-57
2021/10/29 04:06:13;;;;;;;4.18;1.80;;;;;;;;;;4941055;28;20050;-58
2021/10/29 04:08:39;;;;;;;5.20;1.60;;;;;;;;;;4936865;29;20046;-59
2021/10/29 04:11:06;;;;;;;11.40;2.13;;;;;;;;;;4937311;29;20067;-54
2021/10/29 04:13:38;;;;;;;4.88;2.00;;;;;;;;;;4932227;28;20044;-57
2021/10/29 04:16:04;;;;;;;7.20;2.30;;;;;;;;;;4955625;28;20189;-57
2021/10/29 04:18:32;;;;;;;18.77;2.42;;;;;;;;;;4956363;28;20040;-59
2021/10/29 04:20:57;;;;;;;5.82;2.10;;;;;;;;;;4954355;28;20046;-57
2021/10/29 04:23:23;;;;;;;8.65;2.60;;;;;;;;;;4955389;28;20035;-58
2021/10/29 04:25:49;;;;;;;7.18;2.13;;;;;;;;;;4959568;28;20050;-57
2021/10/29 04:28:15;;;;;;;15.35;2.15;;;;;;;;;;4958134;28;20035;-59
2021/10/29 04:30:45;;;;;;;6.60;2.30;;;;;;;;;;4957205;28;20043;-58
2021/10/29 04:33:11;;;;;;;7.97;1.60;;;;;;;;;;4957094;28;20187;-58
2021/10/29 04:35:38;;;;;;;4.97;1.73;;;;;;;;;;4938686;28;20515;-59
2021/10/29 04:38:05;;;;;;;5.80;1.85;;;;;;;;;;4954559;28;20100;-60
2021/10/29 04:40:31;;;;;;;6.57;2.20;;;;;;;;;;4923184;28;20126;-60
2021/10/29 04:42:57;;;;;;;6.47;1.80;;;;;;;;;;4955297;28;20045;-59
2021/10/29 04:45:23;;;;;;;8.88;2.05;;;;;;;;;;4953707;28;20273;-58
2021/10/29 04:47:49;;;;;;;5.80;1.90;;;;;;;;;;4953621;28;20126;-58
2021/10/29 04:50:15;;;;;;;4.75;1.83;;;;;;;;;;4956076;28;20514;-58
2021/10/29 04:52:41;;;;;;;10.48;1.65;;;;;;;;;;4958259;28;20054;-58
2021/10/29 04:55:07;;;;;;;14.15;1.60;;;;;;;;;;4961498;28;20043;-58
2021/10/29 04:57:33;;;;;;;6.22;1.50;;;;;;;;;;4958728;28;20041;-58
2021/10/29 05:00:00;;;;;;;8.75;1.30;;;;;;;;;;4959621;28;20027;-58
2021/10/29 05:02:26;;;;;;;5.47;1.42;;;;;;;;;;4959126;28;20054;-60
2021/10/29 05:04:52;;;;;;;5.95;1.45;;;;;;;;;;4961420;28;20520;-58
2021/10/29 05:07:18;;;;;;;3.80;1.10;;;;;;;;;;4960746;28;20031;-59
2021/10/29 05:09:44;;;;;;;4.00;1.38;;;;;;;;;;4960295;28;20079;-57
2021/10/29 05:12:10;;;;;;;3.17;1.13;;;;;;;;;;4957822;28;20641;-58
2021/10/29 05:14:36;;;;;;;4.95;1.05;;;;;;;;;;4952662;28;20050;-59
2021/10/29 05:17:02;;;;;;;4.15;1.10;;;;;;;;;;4955048;28;20534;-60
2021/10/29 05:19:28;;;;;;;2.65;0.93;;;;;;;;;;4952756;28;20103;-60
2021/10/29 05:21:53;;;;;;;10.38;1.25;;;;;;;;;;4953367;28;20042;-60
2021/10/29 05:24:19;;;;;;;1.90;0.60;;;;;;;;;;4954438;28;20530;-59
2021/10/29 05:26:45;;;;;;;1.88;0.63;;;;;;;;;;4955110;28;20043;-60
2021/10/29 05:29:11;;;;;;;6.57;0.85;;;;;;;;;;4953662;28;20374;-59
2021/10/29 05:31:37;;;;;;;3.90;0.70;;;;;;;;;;4952573;28;20043;-60
2021/10/29 05:34:03;;;;;;;5.60;1.00;;;;;;;;;;4951622;28;20787;-58
2021/10/29 05:36:29;;;;;;;6.22;0.80;;;;;;;;;;4951852;28;20396;-59
2021/10/29 05:38:55;;;;;;;3.60;0.70;;;;;;;;;;4952119;28;20039;-59
2021/10/29 05:41:21;;;;;;;4.43;0.70;;;;;;;;;;4952629;28;20569;-60
2021/10/29 05:43:49;;;;;;;4.47;0.90;;;;;;;;;;4952561;28;20053;-60
2021/10/29 05:46:16;;;;;;;4.25;0.88;;;;;;;;;;4952876;28;20046;-59
2021/10/29 05:48:41;;;;;;;1.73;0.60;;;;;;;;;;4951151;28;20062;-59
2021/10/29 05:51:10;;;;;;;5.45;0.80;;;;;;;;;;4952035;28;20358;-63
2021/10/29 05:53:53;;;;;;;3.28;1.00;;;;;;;;;;4951108;28;20138;-56
2021/10/29 05:56:21;;;;;;;3.30;0.80;;;;;;;;;;4950340;28;20500;-59
2021/10/29 05:58:47;;;;;;;2.83;0.80;;;;;;;;;;4954047;28;20542;-59
2021/10/29 06:01:19;;;;;;;3.95;0.82;;;;;;;;;;4955438;28;20098;-58
2021/10/29 06:03:45;;;;;;;2.20;0.70;;;;;;;;;;4950602;28;20152;-59
2021/10/29 06:06:11;;;;;;;3.83;0.85;;;;;;;;;;4951866;28;20039;-60
2021/10/29 06:08:37;;;;;;;4.25;1.00;;;;;;;;;;4952419;28;20163;-59
2021/10/29 06:11:04;;;;;;;1.90;0.68;;;;;;;;;;4952117;28;20050;-58
2021/10/29 06:13:30;;;;;;;2.38;0.80;;;;;;;;;;4951099;28;20053;-58
2021/10/29 06:15:56;;;;;;;4.05;0.82;;;;;;;;;;4953668;28;20639;-60
2021/10/29 06:18:26;;;;;;;1.73;0.70;;;;;;;;;;4950163;28;20042;-59
2021/10/29 06:20:54;;;;;;;3.35;1.10;;;;;;;;;;4951643;28;20043;-58
2021/10/29 06:23:24;;;;;;;2.10;0.70;;;;;;;;;;4952117;28;20676;-58
2021/10/29 06:25:51;;;;;;;2.80;0.77;;;;;;;;;;4951911;28;20098;-59
2021/10/29 06:28:34;;;;;;;3.15;0.80;;;;;;;;;;4951506;28;20342;-59
2021/10/29 06:31:00;;;;;;;;;;;;;;;;;;4950331;28;20182;-58
2021/10/29 06:33:26;;;;;;;2.78;0.80;;;;;;;;;;4951548;28;20017;-60
2021/10/29 06:35:55;;;;;;;6.07;1.10;;;;;;;;;;4952945;28;20031;-59
2021/10/29 06:38:22;;;;;;;3.00;0.70;;;;;;;;;;4952510;28;20043;-61
2021/10/29 06:40:50;;;;;;;3.70;0.70;;;;;;;;;;4952411;28;20043;-59
2021/10/29 06:43:41;;;;;;;4.72;0.90;;;;;;;;;;4953173;28;20082;-58
2021/10/29 07:02:26;;;;;;;2.22;0.70;;;;;;;;;;4949666;28;20130;-58
2021/10/29 07:40:41;;;;;;;1.58;0.50;;;;;;;;;;4956586;28;20061;-59
2021/10/29 07:43:10;;;;;;;1.55;0.50;;;;;;;;;;4955860;28;20035;-58
2021/10/29 07:45:36;;;;;;;2.08;0.60;;;;;;;;;;4956327;28;20081;-59
2021/10/29 07:48:01;;;;;;;1.58;0.40;;;;;;;;;;4954079;28;20516;-59
2021/10/29 07:50:27;;;;;;;1.55;0.43;;;;;;;;;;4956000;28;20379;-59
2021/10/29 07:52:55;;;;;;;1.38;0.50;;;;;;;;;;4955237;28;20097;-58
2021/10/29 07:55:21;;;;;;;3.05;1.80;;;;;;;;;;4954817;28;20046;-58
2021/10/29 07:57:48;;;;;;;1.08;0.40;;;;;;;;;;4955419;28;20308;-57
2021/10/29 08:00:15;;;;;;;0.73;0.40;;;;;;;;;;4955369;28;20041;-57
2021/10/29 08:02:41;;;;;;;1.50;0.60;;;;;;;;;;4955727;28;20046;-59
2021/10/29 08:05:07;;;;;;;1.95;0.57;;;;;;;;;;4956338;28;20049;-59
2021/10/29 08:07:33;;;;;;;1.35;0.47;;;;;;;;;;4954355;28;20050;-59
2021/10/29 08:10:04;;;;;;;1.20;0.40;;;;;;;;;;4957222;28;20368;-57
2021/10/29 08:12:33;;;;;;;3.83;0.40;;;;;;;;;;4954598;28;20416;-58
2021/10/29 08:15:02;;;;;;;1.45;0.50;;;;;;;;;;4955444;28;20046;-57
2021/10/29 08:17:29;;;;;;;0.63;0.32;;;;;;;;;;4954144;28;20043;-58
2021/10/29 08:19:55;;;;;;;1.42;0.50;;;;;;;;;;4956977;28;20042;-56
2021/10/29 08:22:21;;;;;;;1.58;0.60;;;;;;;;;;4955604;28;20039;-58
2021/10/29 08:24:46;;;;;;;1.08;0.40;;;;;;;;;;4955509;28;20701;-58
2021/10/29 08:27:12;;;;;;;2.67;0.63;;;;;;;;;;4956666;28;20039;-59
2021/10/29 08:29:39;;;;;;;1.75;0.60;;;;;;;;;;4954717;28;20047;-60
2021/10/29 08:32:05;;;;;;;1.25;0.45;;;;;;;;;;4955740;28;20146;-58
2021/10/29 08:34:32;;;;;;;2.55;0.70;;;;;;;;;;4957482;28;20036;-58
2021/10/29 08:36:58;;;;;;;1.33;0.50;;;;;;;;;;4958246;28;20043;-60
2021/10/29 08:39:29;;;;;;;2.70;0.82;;;;;;;;;;4955501;28;20034;-59
2021/10/29 08:41:55;;;;;;;1.20;0.50;;;;;;;;;;4954066;28;20072;-60
2021/10/29 08:44:21;;;;;;;2.25;0.77;;;;;;;;;;4954573;28;20050;-59
2021/10/29 08:46:47;;;;;;;0.77;0.43;;;;;;;;;;4955346;28;20035;-59
2021/10/29 08:49:17;;;;;;;2.85;0.68;;;;;;;;;;4955487;28;20881;-58
2021/10/29 08:51:44;;;;;;;1.63;0.52;;;;;;;;;;4953666;28;20039;-62
2021/10/29 08:54:10;;;;;;;2.70;0.75;;;;;;;;;;4956811;28;20043;-58
2021/10/29 08:56:36;;;;;;;1.48;0.50;;;;;;;;;;4955510;28;21865;-59
2021/10/29 08:59:02;;;;;;;2.80;0.55;;;;;;;;;;4955473;28;20042;-59
2021/10/29 09:01:28;;;;;;;5.88;0.77;;;;;;;;;;4955751;28;20039;-59
2021/10/29 09:04:00;;;;;;;1.38;0.60;;;;;;;;;;4952799;28;20512;-59
2021/10/29 09:06:46;;;;;;;4.15;0.85;;;;;;;;;;4954798;28;20531;-59
2021/10/29 09:09:33;;;;;;;3.53;0.50;;;;;;;;;;4954280;28;20042;-58
2021/10/29 09:15:55;;;;;;;1.52;0.60;;;;;;;;;;4954162;28;20054;-60
2021/10/29 09:31:25;;;;;;;3.72;0.70;;;;;;;;;;4956508;28;20046;-58
2021/10/29 09:34:12;;;;;;;2.03;0.77;;;;;;;;;;4955704;28;20786;-58
2021/10/29 09:36:39;;;;;;;3.35;0.60;;;;;;;;;;4954766;28;20051;-58
2021/10/29 09:39:09;;;;;;;2.80;0.80;;;;;;;;;;4955685;28;20049;-59
2021/10/29 09:41:36;;;;;;;2.45;0.55;;;;;;;;;;4954841;28;20576;-56
2021/10/29 09:44:03;;;;;;;1.33;0.50;;;;;;;;;;4955622;28;20050;-58
2021/10/29 09:46:31;;;;;;;2.25;0.70;;;;;;;;;;4955228;28;20083;-58
2021/10/29 09:49:06;;;;;;;4.35;0.75;;;;;;;;;;4970383;28;20042;-59
2021/10/29 09:51:47;;;;;;;1.98;0.63;;;;;;;;;;4954591;28;20095;-59
2021/10/29 09:54:26;;;;;;;1.80;0.60;;;;;;;;;;4962366;28;20050;-60
2021/10/29 09:56:56;;;;;;;1.92;0.60;;;;;;;;;;4957422;28;20138;-59
2021/10/29 09:59:22;;;;;;;1.63;0.50;;;;;;;;;;4956077;28;20043;-60
2021/10/29 10:01:48;;;;;;;1.55;0.70;;;;;;;;;;4955386;28;20146;-59
2021/10/29 10:04:14;;;;;;;1.30;0.45;;;;;;;;;;4955587;28;20050;-59
2021/10/29 10:06:41;;;;;;;1.58;0.57;;;;;;;;;;4954787;28;20047;-58
2021/10/29 10:09:08;;;;;;;1.90;0.60;;;;;;;;;;4956977;28;20061;-58
2021/10/29 10:11:42;;;;;;;1.08;0.55;;;;;;;;;;4971016;28;20884;-59
2021/10/29 10:14:09;;;;;;;1.60;0.60;;;;;;;;;;4957173;28;20460;-59
2021/10/29 10:16:38;;;;;;;2.63;0.82;;;;;;;;;;4960578;28;20050;-59
2021/10/29 10:19:04;;;;;;;1.65;0.60;;;;;;;;;;4961067;28;20424;-58
2021/10/29 10:21:33;;;;;;;2.20;0.70;;;;;;;;;;4956157;28;20050;-59
2021/10/29 10:24:01;;;;;;;1.92;0.57;;;;;;;;;;4955116;28;20105;-59
2021/10/29 10:43:16;;;;;;;1.63;0.60;;;;;;;;;;4951563;28;21021;-59
2021/10/29 10:45:54;;;;;;;1.55;0.60;;;;;;;;;;4951574;28;20052;-60
2021/10/29 10:48:24;;;;;;;1.65;0.50;;;;;;;;;;4951853;28;21003;-58
2021/10/29 10:50:51;;;;;;;1.35;0.45;;;;;;;;;;4953362;28;20035;-58
2021/10/29 10:53:29;;;;;;;2.40;0.70;;;;;;;;;;4951439;28;20062;-59
2021/10/29 10:56:16;;;;;;;1.73;0.60;;;;;;;;;;4953790;28;20939;-60
2021/10/29 10:59:13;;;;;;;1.75;0.60;;;;;;;;;;4957819;28;20043;-59
2021/10/29 11:06:51;;;;;;;1.27;0.50;;;;;;;;;;4958753;28;20039;-60
2021/10/29 11:12:19;;;;;;;0.70;0.40;;;;;;;;;;4958796;28;20065;-59
2021/10/29 11:15:03;;;;;;;1.50;0.40;;;;;;;;;;4961951;28;20070;-58
2021/10/29 11:17:43;;;;;;;1.42;0.47;;;;;;;;;;4957592;28;20050;-58
2021/10/29 11:20:10;;;;;;;1.38;0.50;;;;;;;;;;4960403;28;20147;-57
2021/10/29 11:22:43;;;;;;;2.22;0.57;;;;;;;;;;4955576;28;20040;-59
2021/10/29 11:25:11;;;;;;;4.20;0.70;;;;;;;;;;4955884;28;20047;-59
2021/10/29 11:27:40;;;;;;;1.20;0.40;;;;;;;;;;4956258;28;20058;-56
2021/10/29 11:30:06;;;;;;;1.33;0.50;;;;;;;;;;4955372;28;20043;-60
2021/10/29 11:32:32;;;;;;;1.45;0.50;;;;;;;;;;4954688;28;20058;-58
2021/10/29 11:35:01;;;;;;;1.20;0.43;;;;;;;;;;4956325;28;20523;-59
2021/10/29 11:37:29;;;;;;;2.13;0.70;;;;;;;;;;4955797;28;20050;-60
2021/10/29 11:39:55;;;;;;;1.17;0.40;;;;;;;;;;4972057;28;20039;-60
2021/10/29 11:42:21;;;;;;;1.70;0.50;;;;;;;;;;4955032;28;20054;-58
2021/10/29 11:44:47;;;;;;;1.15;0.40;;;;;;;;;;4956381;28;20572;-59
2021/10/29 11:47:14;;;;;;;1.42;0.50;;;;;;;;;;4955674;28;20138;-58
2021/10/29 11:49:40;;;;;;;1.40;0.40;;;;;;;;;;4955874;28;20513;-60
2021/10/29 11:52:06;;;;;;;1.40;0.40;;;;;;;;;;4954868;28;20792;-58
2021/10/29 11:54:35;;;;;;;0.88;0.35;;;;;;;;;;4956274;28;20118;-58
2021/10/29 12:07:41;;;;;;;0.95;0.40;;;;;;;;;;4955553;28;20411;-60
2021/10/29 12:10:11;;;;;;;1.17;0.40;;;;;;;;;;4957381;28;20138;-59
2021/10/29 12:12:38;;;;;;;1.27;0.50;;;;;;;;;;4954886;28;20065;-57
2021/10/29 12:15:10;;;;;;;0.98;0.40;;;;;;;;;;4956282;28;20890;-59
2021/10/29 12:17:50;;;;;;;1.35;0.43;;;;;;;;;;4955183;28;20131;-58
2021/10/29 12:20:24;;;;;;;1.42;0.50;;;;;;;;;;4955311;28;20630;-60
2021/10/29 12:22:52;;;;;;;;;;;;;;;;;;4953565;28;20054;-58
2021/10/29 12:25:28;;;;;;;2.10;0.70;;;;;;;;;;4956284;28;20481;-59
2021/10/29 12:28:04;;;;;;;1.38;0.50;;;;;;;;;;4955727;28;20047;-58
2021/10/29 12:30:48;;;;;;;1.60;0.50;;;;;;;;;;4970032;28;20047;-58
2021/10/29 13:03:24;;;;;;;1.30;0.50;;;;;;;;;;4956110;28;20054;-59
2021/10/29 13:05:56;;;;;;;2.85;0.70;;;;;;;;;;4970320;28;20039;-59
2021/10/29 13:08:23;;;;;;;0.98;0.40;;;;;;;;;;4952418;28;20097;-60
2021/10/29 13:10:53;;;;;;;1.33;0.50;;;;;;;;;;4953280;28;20038;-59
2021/10/29 13:13:27;;;;;;;1.13;0.50;;;;;;;;;;4952565;28;20059;-58
2021/10/29 13:16:00;;;;;;;1.70;0.60;;;;;;;;;;4956407;28;20155;-57
2021/10/29 13:18:36;;;;;;;1.70;0.60;;;;;;;;;;4955123;28;20110;-58
2021/10/29 13:21:48;;;;;;;2.05;0.60;;;;;;;;;;4955767;28;20051;-58
2021/10/29 13:50:58;;;;;;;2.78;0.80;;;;;;;;;;4964913;28;20264;-60
2021/10/29 13:53:35;;;;;;;2.70;0.60;;;;;;;;;;4962524;28;20978;-60
2021/10/29 13:56:08;;;;;;;1.27;0.40;;;;;;;;;;4964145;28;20078;-59
2021/10/29 14:28:43;;;;;;;1.25;0.40;;;;;;;;;;4951653;28;20053;-60
2021/10/29 14:31:30;;;;;;;1.45;0.60;;;;;;;;;;4951883;28;20488;-60
2021/10/29 14:34:07;;;;;;;1.65;0.57;;;;;;;;;;4952221;28;20109;-59
2021/10/29 14:37:27;;;;;;;2.28;0.70;;;;;;;;;;4951715;28;20487;-59
2021/10/29 14:42:40;;;;;;;2.63;0.60;;;;;;;;;;4954140;28;20062;-59
2021/10/29 14:50:46;;;;;;;2.08;0.70;;;;;;;;;;4955312;28;20053;-59
2021/10/29 15:00:01;;;;;;;3.03;0.68;;;;;;;;;;4954343;28;20058;-61
2021/10/29 15:02:23;;;;;;;2.05;0.65;;;;;;;;;;4950613;28;20400;-56
2021/10/29 15:18:07;;;;;;;2.33;0.60;;;;;;;;;;4951378;28;20106;-58
2021/10/29 15:26:31;;;;;;;2.97;1.00;;;;;;;;;;4952958;28;19934;-60
2021/10/29 15:29:11;;;;;;;2.80;0.60;;;;;;;;;;4952069;28;20480;-59
2021/10/29 15:32:04;;;;;;;2.65;0.70;;;;;;;;;;4953220;28;20068;-60
2021/10/29 15:42:49;;;;;;;1.92;0.70;;;;;;;;;;4953416;28;20057;-60
2021/10/29 15:45:23;;;;;;;3.07;0.80;;;;;;;;;;4951996;28;20066;-60
2021/10/29 15:50:23;;;;;;;2.30;0.73;;;;;;;;;;4952905;28;20352;-60
2021/10/29 15:52:51;;;;;;;2.80;1.00;;;;;;;;;;4956519;28;20055;-60
2021/10/29 15:55:32;;;;;;;2.03;0.80;;;;;;;;;;4955362;28;20049;-59
2021/10/29 15:58:11;;;;;;;2.78;0.80;;;;;;;;;;4954459;28;20477;-60
2021/10/29 16:03:18;;;;;;;4.53;1.00;;;;;;;;;;4954926;28;20753;-60
2021/10/29 16:19:32;;;;;;;2.97;1.05;;;;;;;;;;4953268;28;20059;-61
2021/10/29 16:21:59;;;;;;;3.75;1.00;;;;;;;;;;4952660;28;20039;-60
2021/10/29 16:24:25;;;;;;;4.15;1.10;;;;;;;;;;4951533;28;20527;-60
2021/10/29 16:26:53;;;;;;;4.35;1.00;;;;;;;;;;4952152;28;20049;-59
2021/10/29 16:29:24;;;;;;;3.17;1.00;;;;;;;;;;4951380;28;20094;-61
2021/10/29 16:31:50;;;;;;;3.15;0.90;;;;;;;;;;4951884;28;20543;-60
2021/10/29 16:34:16;;;;;;;2.42;0.90;;;;;;;;;;4952397;28;20456;-58
2021/10/29 16:36:42;;;;;;;4.18;1.05;;;;;;;;;;4953049;28;20504;-59
2021/10/29 16:39:09;;;;;;;2.70;0.90;;;;;;;;;;4952942;28;20053;-60
2021/10/29 16:41:35;;;;;;;2.90;0.93;;;;;;;;;;4952189;28;20043;-60
2021/10/29 16:44:00;;;;;;;3.28;1.10;;;;;;;;;;4953470;28;20051;-59
2021/10/29 16:46:26;;;;;;;2.38;0.82;;;;;;;;;;4950151;28;20058;-61
2021/10/29 16:48:52;;;;;;;2.38;0.88;;;;;;;;;;4952908;28;20508;-60
2021/10/29 16:51:20;;;;;;;2.58;0.90;;;;;;;;;;4950742;28;20076;-60
2021/10/29 16:53:45;;;;;;;3.15;1.08;;;;;;;;;;4953823;28;20059;-59
2021/10/29 16:56:12;;;;;;;2.40;0.85;;;;;;;;;;4953212;28;20048;-61
2021/10/29 16:58:39;;;;;;;2.53;0.80;;;;;;;;;;4954381;28;20039;-60
2021/10/29 17:01:05;;;;;;;2.97;1.00;;;;;;;;;;4953909;28;20543;-60
2021/10/29 17:03:31;;;;;;;3.10;1.08;;;;;;;;;;4952736;28;20065;-59
2021/10/29 17:05:58;;;;;;;2.83;1.00;;;;;;;;;;4953457;28;20614;-59
2021/10/29 17:08:25;;;;;;;2.30;0.77;;;;;;;;;;4953725;28;20437;-59
2021/10/29 17:10:50;;;;;;;3.95;1.13;;;;;;;;;;4955552;28;20074;-60
2021/10/29 17:13:16;;;;;;;2.35;0.90;;;;;;;;;;4953661;28;20768;-60
2021/10/29 17:15:42;;;;;;;2.85;0.98;;;;;;;;;;4952821;28;20050;-59
2021/10/29 17:18:08;;;;;;;3.10;0.98;;;;;;;;;;4953929;28;20452;-60
2021/10/29 17:20:34;;;;;;;1.95;0.70;;;;;;;;;;4954587;28;20085;-60
2021/10/29 17:23:01;;;;;;;2.83;1.10;;;;;;;;;;4953740;28;20507;-58
2021/10/29 17:25:27;;;;;;;2.90;1.17;;;;;;;;;;4953707;28;20054;-61
2021/10/29 17:27:53;;;;;;;2.55;0.95;;;;;;;;;;4952601;28;20046;-59
2021/10/29 17:30:19;;;;;;;2.75;0.90;;;;;;;;;;4952961;28;20039;-60
2021/10/29 17:32:46;;;;;;;2.50;0.98;;;;;;;;;;4953048;28;20145;-60
2021/10/29 17:35:12;;;;;;;2.50;0.90;;;;;;;;;;4951721;28;20051;-61
2021/10/29 17:37:38;;;;;;;3.47;1.40;;;;;;;;;;4951386;28;20046;-59
2021/10/29 17:40:05;;;;;;;6.00;1.42;;;;;;;;;;4952539;28;20046;-59
2021/10/29 17:42:32;;;;;;;3.03;1.20;;;;;;;;;;4966556;28;20177;-60
2021/10/29 17:44:58;;;;;;;3.20;1.23;;;;;;;;;;4952139;28;20030;-59
2021/10/29 17:47:24;;;;;;;3.47;1.48;;;;;;;;;;4952514;28;20057;-59
2021/10/29 17:49:53;;;;;;;3.78;1.58;;;;;;;;;;4951558;28;20490;-60
2021/10/29 17:52:19;;;;;;;6.03;1.40;;;;;;;;;;4951229;28;20082;-59
2021/10/29 17:54:52;;;;;;;3.22;1.40;;;;;;;;;;4955639;28;20106;-63
2021/10/29 17:57:18;;;;;;;3.37;1.50;;;;;;;;;;4954328;28;20070;-59
2021/10/29 17:59:44;;;;;;;3.45;1.50;;;;;;;;;;4957065;28;20133;-60
2021/10/29 18:02:12;;;;;;;3.60;1.50;;;;;;;;;;4953978;28;20031;-59
2021/10/29 18:04:38;;;;;;;6.55;1.10;;;;;;;;;;4966633;28;20051;-60
2021/10/29 18:07:05;;;;;;;2.20;0.80;;;;;;;;;;4954393;28;20054;-58
2021/10/29 18:09:35;;;;;;;1.80;0.60;;;;;;;;;;4954083;28;20031;-59
2021/10/29 18:12:01;;;;;;;2.90;0.88;;;;;;;;;;4954218;28;20073;-59
2021/10/29 18:14:27;;;;;;;5.97;0.65;;;;;;;;;;4952799;28;20070;-60
2021/10/29 18:16:53;;;;;;;2.47;0.95;;;;;;;;;;4954494;28;20061;-61
2021/10/29 18:19:19;;;;;;;2.03;0.70;;;;;;;;;;4955173;28;20830;-61
2021/10/29 18:21:45;;;;;;;3.05;0.90;;;;;;;;;;4951807;28;20043;-60
2021/10/29 18:24:13;;;;;;;2.20;0.60;;;;;;;;;;4953128;28;20046;-60
2021/10/29 18:26:39;;;;;;;3.50;0.98;;;;;;;;;;4951127;28;20173;-61
2021/10/29 18:29:07;;;;;;;2.95;0.88;;;;;;;;;;4952337;28;20054;-60
2021/10/29 18:31:33;;;;;;;2.83;0.80;;;;;;;;;;4950183;28;20039;-60
2021/10/29 18:33:59;;;;;;;2.30;0.80;;;;;;;;;;4950436;28;20051;-59
2021/10/29 18:36:25;;;;;;;5.05;1.00;;;;;;;;;;4951867;28;20531;-60
2021/10/29 18:38:52;;;;;;;2.55;0.90;;;;;;;;;;4951164;28;20093;-61
2021/10/29 18:41:18;;;;;;;3.38;0.88;;;;;;;;;;4951115;28;20528;-60
2021/10/29 18:43:45;;;;;;;2.50;0.88;;;;;;;;;;4953570;28;20047;-60
2021/10/29 18:46:11;;;;;;;1.02;0.52;;;;;;;;;;4952738;28;20113;-59
2021/10/29 18:48:38;;;;;;;2.92;0.90;;;;;;;;;;4952056;28;20474;-59
2021/10/29 18:51:04;;;;;;;5.35;2.10;;;;;;;;;;4953693;28;20108;-60
2021/10/29 18:53:30;;;;;;;3.60;1.20;;;;;;;;;;4951010;28;20081;-59
2021/10/29 18:55:56;;;;;;;2.20;0.82;;;;;;;;;;4953133;28;20792;-59
2021/10/29 18:58:22;;;;;;;2.85;1.10;;;;;;;;;;4952391;28;20043;-59
2021/10/29 19:00:48;;;;;;;5.82;1.63;;;;;;;;;;4966273;28;20042;-58
2021/10/29 19:03:14;;;;;;;4.63;1.27;;;;;;;;;;4951410;28;20058;-59
2021/10/29 19:05:40;;;;;;;3.40;1.10;;;;;;;;;;4951524;28;20081;-59
2021/10/29 19:08:06;;;;;;;3.53;1.30;;;;;;;;;;4952124;28;20046;-59
2021/10/29 19:10:33;;;;;;;3.13;1.40;;;;;;;;;;4949437;28;20141;-59
2021/10/29 19:12:58;;;;;;;4.10;2.13;;;;;;;;;;4951662;28;20522;-58
2021/10/29 19:15:25;;;;;;;3.20;1.38;;;;;;;;;;4937870;28;20150;-59